1867 NOT_NAMED (1867121S13070)


IBTrACS version v04r00. Visit IBTrACS website for data access.
Please direct all questions to the IBTrACS Q and A forum

Storm track - Intensity - Wind Radii - Intensity Data - Source Data - All data

Summary Information

Storm ID 1867121S13070
Start May 1 06Z
End May 7 06Z
ATCF IDs
Track status Best track data.

Storm track plot

Map of storm track

Intensity plots

No Intensity information for this storm


Radial wind information

No radial wind information for this storm


Position and Intensity Table

BASIN ISO_TIME_________ NATURE LAT LON
degrees north degrees east
SI 1867-05-01 06:00:00 NR -12.90 69.50
SI 09:00:00 NR -13.04 69.36
SI 12:00:00 NR -13.19 69.23
SI 15:00:00 NR -13.33 69.09
SI 18:00:00 NR -13.47 68.95
SI 21:00:00 NR -13.61 68.82
SI 1867-05-02 00:00:00 NR -13.74 68.68
SI 03:00:00 NR -13.87 68.54
SI 06:00:00 NR -14.00 68.40
SI 09:00:00 NR -14.12 68.26
SI 12:00:00 NR -14.25 68.12
SI 15:00:00 NR -14.37 67.97
SI 18:00:00 NR -14.51 67.82
SI 21:00:00 NR -14.66 67.65
SI 1867-05-03 00:00:00 NR -14.82 67.48
SI 03:00:00 NR -15.00 67.30
SI 06:00:00 NR -15.20 67.10
SI 09:00:00 NR -15.45 66.87
SI 12:00:00 NR -15.72 66.62
SI 15:00:00 NR -16.01 66.36
SI 18:00:00 NR -16.31 66.09
SI 21:00:00 NR -16.61 65.83
SI 1867-05-04 00:00:00 NR -16.92 65.57
SI 03:00:00 NR -17.22 65.33
SI 06:00:00 NR -17.50 65.10
SI 09:00:00 NR -17.74 64.90
SI 12:00:00 NR -17.97 64.72
SI 15:00:00 NR -18.20 64.56
SI 18:00:00 NR -18.41 64.41
SI 21:00:00 NR -18.63 64.27
SI 1867-05-05 00:00:00 NR -18.85 64.14
SI 03:00:00 NR -19.07 64.02
SI 06:00:00 NR -19.30 63.90
SI 09:00:00 NR -19.57 63.77
SI 12:00:00 NR -19.85 63.65
SI 15:00:00 NR -20.13 63.53
SI 18:00:00 NR -20.41 63.43
SI 21:00:00 NR -20.68 63.33
SI 1867-05-06 00:00:00 NR -20.94 63.24
SI 03:00:00 NR -21.18 63.16
SI 06:00:00 NR -21.40 63.10
SI 09:00:00 NR -21.59 63.05
SI 12:00:00 NR -21.75 63.01
SI 15:00:00 NR -21.89 62.97
SI 18:00:00 NR -22.02 62.95
SI 21:00:00 NR -22.13 62.93
SI 1867-05-07 00:00:00 NR -22.22 62.92
SI 03:00:00 NR -22.31 62.91
SI 06:00:00 NR -22.40 62.90

Source Information

Agency Information
USA
TOKYO
CMA
HKO
NEWDELHI
REUNION WMO-Best-Tracks.txt:Line=714:xxxx867105
BOM
NADI
WELLINGTON
DS824
TD9636
TD9635
NEUMANN
MLC

All available IBTrACS Data

SEASON BASIN SUBBASIN ISO_TIME_________ NATURE LAT LON WMO AGENCY DIST2LAND LANDFALL IFLAG USA SSHS REUNION LAT REUNION LON REUNION TYPE REUNION TNUM STORM SPEED STORM DIR
Year degrees north degrees east km km 1 degrees north degrees east 1 kts degrees
1867 SI MM 1867-05-01 06:00:00 NR -12.90 69.50 reunion 1493 1478 _____O________ -1 -12.90 69.50 99 9.90 4 222
1867 SI MM 09:00:00 NR -13.04 69.36 1478 1447 _____P________ -1 -13.04 69.36 99 4 223
1867 SI MM 12:00:00 NR -13.19 69.23 1447 1432 _____P________ -1 -13.19 69.23 99 4 223
1867 SI MM 15:00:00 NR -13.33 69.09 1432 1410 _____P________ -1 -13.33 69.09 99 4 223
1867 SI MM 18:00:00 NR -13.47 68.95 1410 1386 _____P________ -1 -13.47 68.95 99 4 224
1867 SI MM 21:00:00 NR -13.61 68.82 1386 1371 _____P________ -1 -13.61 68.82 99 4 225
1867 SI MM 1867-05-02 00:00:00 NR -13.74 68.68 1371 1341 _____P________ -1 -13.74 68.68 99 4 225
1867 SI MM 03:00:00 NR -13.87 68.54 1341 1326 _____P________ -1 -13.87 68.54 99 4 226
1867 SI MM 06:00:00 NR -14.00 68.40 reunion 1326 1311 _____O________ -1 -14.00 68.40 99 9.90 4 227
1867 SI MM 09:00:00 NR -14.12 68.26 1311 1286 _____P________ -1 -14.12 68.26 99 4 228
1867 SI MM 12:00:00 NR -14.25 68.12 1286 1265 _____P________ -1 -14.25 68.12 99 4 228
1867 SI MM 15:00:00 NR -14.37 67.97 1265 1241 _____P________ -1 -14.37 67.97 99 4 228
1867 SI MM 18:00:00 NR -14.51 67.82 1241 1226 _____P________ -1 -14.51 67.82 99 4 227
1867 SI MM 21:00:00 NR -14.66 67.65 1220 1196 _____P________ -1 -14.66 67.65 99 4 226
1867 SI MM 1867-05-03 00:00:00 NR -14.82 67.48 1196 1166 _____P________ -1 -14.82 67.48 99 5 225
1867 SI MM 03:00:00 NR -15.00 67.30 1166 1136 _____P________ -1 -15.00 67.30 99 5 224
1867 SI MM 06:00:00 NR -15.20 67.10 reunion 1136 1106 _____O________ -1 -15.20 67.10 99 9.90 6 223
1867 SI MM 09:00:00 NR -15.45 66.87 1106 1062 _____P________ -1 -15.45 66.87 99 7 222
1867 SI MM 12:00:00 NR -15.72 66.62 1062 1027 _____P________ -1 -15.72 66.62 99 7 221
1867 SI MM 15:00:00 NR -16.01 66.36 1027 983 _____P________ -1 -16.01 66.36 99 8 221
1867 SI MM 18:00:00 NR -16.31 66.09 983 939 _____P________ -1 -16.31 66.09 99 8 220
1867 SI MM 21:00:00 NR -16.61 65.83 939 905 _____P________ -1 -16.61 65.83 99 8 219
1867 SI MM 1867-05-04 00:00:00 NR -16.92 65.57 905 862 _____P________ -1 -16.92 65.57 99 8 219
1867 SI MM 03:00:00 NR -17.22 65.33 862 829 _____P________ -1 -17.22 65.33 99 7 218
1867 SI MM 06:00:00 NR -17.50 65.10 reunion 829 801 _____O________ -1 -17.50 65.10 99 9.90 7 217
1867 SI MM 09:00:00 NR -17.74 64.90 801 769 _____P________ -1 -17.74 64.90 99 6 217
1867 SI MM 12:00:00 NR -17.97 64.72 769 751 _____P________ -1 -17.97 64.72 99 6 216
1867 SI MM 15:00:00 NR -18.20 64.56 751 724 _____P________ -1 -18.20 64.56 99 5 214
1867 SI MM 18:00:00 NR -18.41 64.41 724 707 _____P________ -1 -18.41 64.41 99 5 213
1867 SI MM 21:00:00 NR -18.63 64.27 707 681 _____P________ -1 -18.63 64.27 99 5 210
1867 SI MM 1867-05-05 00:00:00 NR -18.85 64.14 681 662 _____P________ -1 -18.85 64.14 99 5 209
1867 SI MM 03:00:00 NR -19.07 64.02 662 647 _____P________ -1 -19.07 64.02 99 5 206
1867 SI MM 06:00:00 NR -19.30 63.90 reunion 647 631 _____O________ -1 -19.30 63.90 99 9.90 6 205
1867 SI MM 09:00:00 NR -19.57 63.77 631 618 _____P________ -1 -19.57 63.77 99 6 203
1867 SI MM 12:00:00 NR -19.85 63.65 608 595 _____P________ -1 -19.85 63.65 99 6 202
1867 SI MM 15:00:00 NR -20.13 63.53 595 583 _____P________ -1 -20.13 63.53 99 6 201
1867 SI MM 18:00:00 NR -20.41 63.43 583 573 _____P________ -1 -20.41 63.43 99 6 199
1867 SI MM 21:00:00 NR -20.68 63.33 574 565 _____P________ -1 -20.68 63.33 99 6 198
1867 SI MM 1867-05-06 00:00:00 NR -20.94 63.24 565 565 _____P________ -1 -20.94 63.24 99 5 197
1867 SI MM 03:00:00 NR -21.18 63.16 570 560 _____P________ -1 -21.18 63.16 99 5 196
1867 SI MM 06:00:00 NR -21.40 63.10 reunion 564 564 _____O________ -1 -21.40 63.10 99 9.90 4 196
1867 SI MM 09:00:00 NR -21.59 63.05 559 559 _____P________ -1 -21.59 63.05 99 4 195
1867 SI MM 12:00:00 NR -21.75 63.01 564 564 _____P________ -1 -21.75 63.01 99 3 192
1867 SI MM 15:00:00 NR -21.89 62.97 568 568 _____P________ -1 -21.89 62.97 99 3 193
1867 SI MM 18:00:00 NR -22.02 62.95 561 561 _____P________ -1 -22.02 62.95 99 2 188
1867 SI MM 21:00:00 NR -22.13 62.93 565 565 _____P________ -1 -22.13 62.93 99 2 190
1867 SI MM 1867-05-07 00:00:00 NR -22.22 62.92 569 569 _____P________ -1 -22.22 62.92 99 2 0
1867 SI MM 03:00:00 NR -22.31 62.91 573 573 _____P________ -1 -22.31 62.91 99 2 184
1867 SI MM 06:00:00 NR -22.40 62.90 reunion 577 _____O________ -1 -22.40 62.90 99 9.90 2 192